Time;durP1;ratioP1;P1;durP2;ratioP2;P2;SDS_P1;SDS_P2;PMS_P1;PMS_P2;Temp;Humidity;BMP_temperature;BMP_pressure;BME280_temperature;BME280_humidity;BME280_pressure;Samples;Min_cycle;Max_cycle;Signal;HPM_P1;HPM_P2
2021/04/07 00:00:03;;;;;;;5.93;3.85;;;0.00;99.90;;;;;;491171;242;27878;-71
2021/04/07 00:02:04;;;;;;;3.72;3.42;;;0.00;99.90;;;;;;491117;242;27488;-71
2021/04/07 00:04:05;;;;;;;5.35;3.47;;;-0.10;99.90;;;;;;491068;242;27567;-72
2021/04/07 00:06:06;;;;;;;5.93;3.60;;;-0.10;99.90;;;;;;491041;242;27488;-71
2021/04/07 00:08:08;;;;;;;7.68;3.95;;;-0.10;99.90;;;;;;490978;242;27472;-72
2021/04/07 00:10:09;;;;;;;3.60;3.30;;;-0.10;99.90;;;;;;491037;240;27499;-70
2021/04/07 00:12:10;;;;;;;10.02;3.87;;;-0.10;99.90;;;;;;491054;242;27504;-71
2021/04/07 00:14:11;;;;;;;6.22;3.75;;;-0.10;99.90;;;;;;491079;242;27514;-71
2021/04/07 00:16:13;;;;;;;7.90;3.40;;;0.00;99.90;;;;;;491061;242;28009;-71
2021/04/07 00:18:14;;;;;;;4.05;3.42;;;0.00;99.90;;;;;;491067;242;27846;-71
2021/04/07 00:20:15;;;;;;;4.45;3.10;;;-0.10;99.90;;;;;;491060;242;27974;-71
2021/04/07 00:22:16;;;;;;;4.60;3.87;;;0.00;99.90;;;;;;491057;242;27472;-71
2021/04/07 00:24:18;;;;;;;4.30;3.40;;;0.00;99.90;;;;;;491072;242;27480;-72
2021/04/07 00:26:19;;;;;;;5.50;3.33;;;0.00;99.90;;;;;;491038;242;27482;-71
2021/04/07 00:28:21;;;;;;;4.00;3.60;;;0.00;99.90;;;;;;491089;242;27597;-71
2021/04/07 00:30:21;;;;;;;3.70;3.00;;;0.10;99.90;;;;;;491162;242;27524;-71
2021/04/07 00:32:23;;;;;;;5.28;3.40;;;0.10;99.90;;;;;;491157;242;27456;-70
2021/04/07 00:34:24;;;;;;;6.12;3.35;;;0.10;99.90;;;;;;491080;242;27486;-71
2021/04/07 00:36:25;;;;;;;3.35;3.10;;;0.10;99.90;;;;;;491158;242;27588;-71
2021/04/07 00:38:26;;;;;;;3.67;3.22;;;0.10;99.90;;;;;;491034;242;27476;-71
2021/04/07 00:40:28;;;;;;;6.43;4.32;;;0.10;99.90;;;;;;491077;242;27496;-72
2021/04/07 00:42:29;;;;;;;4.57;3.55;;;0.10;99.90;;;;;;491186;242;27838;-71
2021/04/07 00:44:30;;;;;;;3.35;3.03;;;0.10;99.90;;;;;;491240;242;28005;-71
2021/04/07 00:46:31;;;;;;;3.97;3.60;;;0.10;99.90;;;;;;491234;242;27927;-71
2021/04/07 00:48:33;;;;;;;4.85;3.40;;;0.10;99.90;;;;;;491191;242;28040;-71
2021/04/07 00:50:34;;;;;;;4.37;3.40;;;0.00;99.90;;;;;;491118;242;27500;-71
2021/04/07 00:52:35;;;;;;;6.05;3.80;;;0.00;99.90;;;;;;491093;242;27498;-72
2021/04/07 00:54:36;;;;;;;4.55;3.40;;;0.10;99.90;;;;;;491049;242;27607;-71
2021/04/07 00:56:38;;;;;;;5.37;3.20;;;0.10;99.90;;;;;;491107;242;27379;-71
2021/04/07 00:58:39;;;;;;;5.80;3.60;;;0.10;99.90;;;;;;491029;242;27496;-72
2021/04/07 01:00:40;;;;;;;4.53;3.33;;;0.00;99.90;;;;;;491023;242;27498;-71
2021/04/07 01:02:41;;;;;;;4.45;3.40;;;0.00;99.90;;;;;;491043;242;27563;-71
2021/04/07 01:04:43;;;;;;;5.95;3.00;;;0.00;99.90;;;;;;491087;242;27578;-71
2021/04/07 01:06:44;;;;;;;4.15;3.72;;;-0.10;99.90;;;;;;491059;242;27506;-71
2021/04/07 01:08:45;;;;;;;3.97;3.62;;;-0.10;99.90;;;;;;491068;242;27496;-72
2021/04/07 01:10:46;;;;;;;4.12;3.00;;;-0.10;99.90;;;;;;491063;242;28043;-71
2021/04/07 01:12:48;;;;;;;3.65;3.00;;;-0.10;99.90;;;;;;491071;242;27910;-71
2021/04/07 01:14:49;;;;;;;3.70;3.00;;;-0.10;99.90;;;;;;491064;242;27613;-72
2021/04/07 01:16:50;;;;;;;3.47;3.17;;;-0.10;99.90;;;;;;491067;242;27395;-71
2021/04/07 01:18:51;;;;;;;3.60;3.30;;;-0.10;99.90;;;;;;491059;242;27578;-71
2021/04/07 01:20:53;;;;;;;3.35;3.12;;;-0.10;99.90;;;;;;491059;242;27398;-72
2021/04/07 01:22:54;;;;;;;4.03;3.33;;;-0.10;99.90;;;;;;491080;242;27557;-71
2021/04/07 01:24:55;;;;;;;3.65;2.97;;;-0.10;99.90;;;;;;491162;242;27503;-71
2021/04/07 01:26:56;;;;;;;3.53;3.22;;;0.00;99.90;;;;;;491206;242;27455;-70
2021/04/07 01:28:58;;;;;;;7.28;2.90;;;-0.10;99.90;;;;;;491127;242;27396;-71
2021/04/07 01:30:59;;;;;;;3.65;3.05;;;-0.10;99.90;;;;;;491108;242;27988;-71
2021/04/07 01:33:00;;;;;;;4.87;3.67;;;-0.10;99.90;;;;;;491018;242;27981;-70
2021/04/07 01:35:01;;;;;;;3.22;2.92;;;-0.10;99.90;;;;;;491042;242;27499;-71
2021/04/07 01:37:03;;;;;;;6.20;3.20;;;-0.10;99.90;;;;;;491050;242;27563;-71
2021/04/07 01:39:04;;;;;;;2.85;2.65;;;-0.10;99.90;;;;;;491117;242;27411;-72
2021/04/07 01:41:05;;;;;;;6.85;3.25;;;-0.10;99.90;;;;;;491079;242;27575;-71
2021/04/07 01:43:06;;;;;;;2.75;2.55;;;-0.10;99.90;;;;;;491081;242;27504;-71
2021/04/07 01:45:08;;;;;;;3.25;2.95;;;-0.10;99.90;;;;;;491103;242;27472;-72
2021/04/07 01:47:09;;;;;;;4.40;3.08;;;-0.10;99.90;;;;;;491110;242;27485;-71
2021/04/07 01:49:10;;;;;;;3.80;3.20;;;-0.10;99.90;;;;;;490576;242;28127;-72
2021/04/07 01:51:11;;;;;;;2.90;2.70;;;0.00;99.90;;;;;;490307;242;27896;-72
2021/04/07 01:53:13;;;;;;;5.53;3.15;;;-0.10;99.90;;;;;;490688;242;27939;-71
2021/04/07 01:55:14;;;;;;;4.43;3.03;;;0.00;99.90;;;;;;490939;242;27372;-71
2021/04/07 01:57:15;;;;;;;2.92;2.67;;;0.00;99.90;;;;;;491231;241;27483;-72
2021/04/07 01:59:16;;;;;;;2.92;2.72;;;0.10;99.90;;;;;;491234;242;27589;-72
2021/04/07 02:01:18;;;;;;;2.70;2.50;;;0.10;99.90;;;;;;491248;242;27476;-71
2021/04/07 02:03:19;;;;;;;4.28;3.17;;;0.10;99.90;;;;;;491266;242;27559;-71
2021/04/07 02:05:20;;;;;;;2.80;2.60;;;0.10;99.90;;;;;;491221;242;27539;-72
2021/04/07 02:07:21;;;;;;;4.93;2.90;;;0.10;99.90;;;;;;491116;242;27484;-71
2021/04/07 02:09:23;;;;;;;5.53;2.90;;;0.10;99.90;;;;;;491129;242;27856;-71
2021/04/07 02:11:24;;;;;;;4.40;2.90;;;0.10;99.90;;;;;;491104;242;27452;-71
2021/04/07 02:13:25;;;;;;;6.10;3.33;;;0.10;99.90;;;;;;491102;242;27547;-72
2021/04/07 02:15:26;;;;;;;2.90;2.70;;;0.10;99.90;;;;;;491148;242;27360;-71
2021/04/07 02:17:28;;;;;;;3.70;2.47;;;0.10;99.90;;;;;;491060;242;27996;-71
2021/04/07 02:19:29;;;;;;;6.25;2.90;;;0.10;99.90;;;;;;491080;242;28154;-71
2021/04/07 02:21:30;;;;;;;5.22;3.40;;;0.10;99.90;;;;;;491092;242;27912;-71
2021/04/07 02:23:31;;;;;;;4.25;2.92;;;0.10;99.90;;;;;;491109;240;27507;-71
2021/04/07 02:25:33;;;;;;;4.62;3.33;;;0.00;99.90;;;;;;491070;242;27392;-72
2021/04/07 02:27:35;;;;;;;5.80;3.22;;;0.00;99.90;;;;;;490953;242;27503;-71
2021/04/07 02:29:35;;;;;;;4.03;3.30;;;0.10;99.90;;;;;;491024;241;27492;-71
2021/04/07 02:31:36;;;;;;;5.40;3.42;;;0.10;99.90;;;;;;491061;242;27479;-71
2021/04/07 02:33:38;;;;;;;3.85;3.22;;;0.00;99.90;;;;;;491049;242;27931;-71
2021/04/07 02:35:39;;;;;;;3.10;2.80;;;0.00;99.90;;;;;;491048;242;27595;-71
2021/04/07 02:37:40;;;;;;;4.53;3.12;;;0.00;99.90;;;;;;491068;242;27480;-71
2021/04/07 02:39:41;;;;;;;3.50;3.20;;;0.00;99.90;;;;;;491062;242;27475;-72
2021/04/07 02:41:43;;;;;;;3.45;3.15;;;-0.10;99.90;;;;;;491100;242;27404;-71
2021/04/07 02:43:44;;;;;;;5.20;3.60;;;0.00;99.90;;;;;;491051;242;28058;-72
2021/04/07 02:45:45;;;;;;;6.60;2.90;;;0.00;99.90;;;;;;491043;242;28036;-71
2021/04/07 02:47:46;;;;;;;3.45;3.15;;;0.00;99.90;;;;;;491074;242;27881;-71
2021/04/07 02:49:48;;;;;;;3.70;3.15;;;0.00;99.90;;;;;;491074;242;27941;-71
2021/04/07 02:51:50;;;;;;;4.40;3.03;;;0.00;99.90;;;;;;491134;242;27514;-71
2021/04/07 02:53:50;;;;;;;3.35;2.87;;;-0.10;99.90;;;;;;491122;242;27512;-71
2021/04/07 02:55:51;;;;;;;3.97;3.25;;;-0.20;99.90;;;;;;491186;242;27567;-71
2021/04/07 02:57:53;;;;;;;3.10;2.80;;;-0.20;99.90;;;;;;491137;240;27395;-72
2021/04/07 02:59:54;;;;;;;3.40;3.00;;;-0.30;99.90;;;;;;491079;242;27511;-71
2021/04/07 03:01:55;;;;;;;8.27;3.62;;;-0.30;99.90;;;;;;491083;242;27527;-71
2021/04/07 03:03:57;;;;;;;3.45;2.90;;;-0.40;99.90;;;;;;491062;242;27579;-72
2021/04/07 03:05:58;;;;;;;3.85;3.05;;;-0.40;99.90;;;;;;491049;241;28003;-72
2021/04/07 03:07:59;;;;;;;6.80;3.50;;;-0.40;99.90;;;;;;491064;240;28910;-71
2021/04/07 03:10:00;;;;;;;3.33;2.97;;;-0.50;99.90;;;;;;491100;242;27815;-72
2021/04/07 03:12:02;;;;;;;3.50;3.20;;;-0.50;99.90;;;;;;491066;242;27504;-71
2021/04/07 03:14:03;;;;;;;3.00;2.70;;;-0.50;99.90;;;;;;491049;242;27543;-71
2021/04/07 03:16:04;;;;;;;5.25;2.75;;;-0.50;99.90;;;;;;491008;242;27503;-71
2021/04/07 03:18:05;;;;;;;3.30;2.92;;;-0.60;99.90;;;;;;491064;242;27962;-71
2021/04/07 03:20:07;;;;;;;4.45;3.15;;;-0.60;99.90;;;;;;491073;241;27456;-71
2021/04/07 03:22:08;;;;;;;5.22;3.00;;;-0.60;99.90;;;;;;491145;240;27495;-71
2021/04/07 03:24:09;;;;;;;3.50;3.00;;;-0.60;99.90;;;;;;491300;242;27361;-71
2021/04/07 03:26:10;;;;;;;5.00;3.40;;;-0.70;99.90;;;;;;491213;242;27933;-71
2021/04/07 03:28:12;;;;;;;5.60;3.15;;;-0.70;99.90;;;;;;491237;242;27867;-71
2021/04/07 03:30:13;;;;;;;5.20;3.00;;;-0.80;99.90;;;;;;491223;242;29087;-72
2021/04/07 03:32:14;;;;;;;6.80;2.85;;;-0.80;99.90;;;;;;491246;242;27570;-71
2021/04/07 03:34:15;;;;;;;4.40;2.72;;;-0.80;99.90;;;;;;490713;239;27484;-71
2021/04/07 03:36:17;;;;;;;5.10;2.75;;;-0.80;99.90;;;;;;490830;242;27452;-72
2021/04/07 03:38:18;;;;;;;2.83;2.50;;;-0.80;99.90;;;;;;491153;242;27499;-72
2021/04/07 03:40:19;;;;;;;7.55;2.80;;;-0.80;99.90;;;;;;491152;242;27447;-71
2021/04/07 03:42:20;;;;;;;4.30;3.03;;;-0.80;99.90;;;;;;491085;242;27490;-71
2021/04/07 03:44:22;;;;;;;2.87;2.50;;;-0.70;99.90;;;;;;491048;241;27492;-72
2021/04/07 03:46:23;;;;;;;2.90;2.55;;;-0.70;99.90;;;;;;491035;242;28039;-71
2021/04/07 03:48:24;;;;;;;5.93;3.33;;;-0.70;99.90;;;;;;491082;242;28051;-72
2021/04/07 03:50:25;;;;;;;3.80;2.90;;;-0.70;99.90;;;;;;490589;242;29145;-71
2021/04/07 03:52:27;;;;;;;2.72;2.53;;;-0.70;99.90;;;;;;491033;242;27582;-71
2021/04/07 03:54:28;;;;;;;5.70;2.70;;;-0.70;99.90;;;;;;491048;241;27402;-71
2021/04/07 03:56:29;;;;;;;7.72;2.83;;;-0.70;99.90;;;;;;491011;242;27503;-71
2021/04/07 03:58:30;;;;;;;5.25;3.05;;;-0.70;99.90;;;;;;491056;242;27810;-73
2021/04/07 04:00:32;;;;;;;8.02;3.33;;;-0.70;99.90;;;;;;491058;242;27383;-71
2021/04/07 04:02:33;;;;;;;2.92;2.62;;;-0.70;99.90;;;;;;491043;242;27430;-71
2021/04/07 04:04:34;;;;;;;5.53;3.40;;;-0.70;99.90;;;;;;491051;242;27484;-71
2021/04/07 04:06:35;;;;;;;6.20;2.67;;;-0.70;99.90;;;;;;491021;242;27947;-72
2021/04/07 04:08:37;;;;;;;8.07;3.30;;;-0.70;99.90;;;;;;491047;242;28050;-71
2021/04/07 04:10:38;;;;;;;4.85;2.60;;;-0.70;99.90;;;;;;491025;242;27996;-71
2021/04/07 04:12:39;;;;;;;3.97;2.90;;;-0.70;99.90;;;;;;491059;242;27409;-71
2021/04/07 04:14:40;;;;;;;10.02;3.37;;;-0.80;99.90;;;;;;491060;242;27475;-71
2021/04/07 04:16:43;;;;;;;3.87;2.90;;;-0.70;99.90;;;;;;491043;242;27499;-71
2021/04/07 04:18:43;;;;;;;4.70;2.60;;;-0.80;99.90;;;;;;491320;242;27456;-71
2021/04/07 04:20:44;;;;;;;3.05;2.75;;;-0.80;99.90;;;;;;491381;242;27619;-71
2021/04/07 04:22:45;;;;;;;3.47;3.17;;;-0.80;99.90;;;;;;491060;241;27590;-71
2021/04/07 04:24:47;;;;;;;4.12;3.25;;;-0.90;99.90;;;;;;491081;241;27892;-72
2021/04/07 04:26:48;;;;;;;4.60;2.33;;;-0.90;99.90;;;;;;491129;242;28047;-73
2021/04/07 04:28:49;;;;;;;5.72;3.40;;;-0.80;99.90;;;;;;491063;242;27935;-71
2021/04/07 04:30:50;;;;;;;5.15;3.00;;;-0.70;99.90;;;;;;491031;242;27511;-71
2021/04/07 04:32:52;;;;;;;3.10;2.80;;;-0.70;99.90;;;;;;491066;242;27487;-72
2021/04/07 04:34:53;;;;;;;4.43;2.80;;;-0.70;99.90;;;;;;491032;242;27471;-71
2021/04/07 04:36:54;;;;;;;4.18;3.00;;;-0.60;99.90;;;;;;491075;242;27487;-71
2021/04/07 04:38:55;;;;;;;3.05;2.83;;;-0.60;99.90;;;;;;491133;242;27483;-71
2021/04/07 04:40:57;;;;;;;5.12;2.90;;;-0.60;99.90;;;;;;491198;242;27484;-71
2021/04/07 04:42:58;;;;;;;11.85;3.70;;;-0.60;99.90;;;;;;491219;242;27433;-71
2021/04/07 04:44:59;;;;;;;7.25;2.80;;;-0.60;99.90;;;;;;491241;242;27824;-71
2021/04/07 04:47:00;;;;;;;5.40;2.83;;;-0.50;99.90;;;;;;491223;241;27959;-72
2021/04/07 04:49:02;;;;;;;6.50;3.10;;;-0.50;99.90;;;;;;491231;242;28018;-71
2021/04/07 04:51:03;;;;;;;5.22;3.33;;;-0.50;99.90;;;;;;491240;242;27464;-72
2021/04/07 04:53:04;;;;;;;3.90;3.05;;;-0.50;99.90;;;;;;491123;241;27496;-71
2021/04/07 04:55:05;;;;;;;7.07;3.10;;;-0.50;99.90;;;;;;491065;242;27574;-72
2021/04/07 04:57:07;;;;;;;5.85;2.85;;;-0.50;99.90;;;;;;490758;242;27534;-71
2021/04/07 04:59:08;;;;;;;4.90;3.37;;;-0.50;99.90;;;;;;491103;242;27459;-71
2021/04/07 05:01:10;;;;;;;8.35;3.55;;;-0.50;99.90;;;;;;491035;242;27514;-71
2021/04/07 05:03:10;;;;;;;13.75;3.60;;;-0.50;99.90;;;;;;491055;242;27388;-72
2021/04/07 05:05:12;;;;;;;5.97;3.28;;;-0.40;99.90;;;;;;491085;242;27920;-71
2021/04/07 05:07:13;;;;;;;5.05;2.90;;;-0.50;99.90;;;;;;491106;242;27965;-72
2021/04/07 05:09:14;;;;;;;7.30;3.12;;;-0.50;99.90;;;;;;490989;242;27836;-71
2021/04/07 05:11:16;;;;;;;8.13;3.75;;;-0.50;99.90;;;;;;491045;242;27569;-71
2021/04/07 05:13:17;;;;;;;3.90;2.67;;;-0.50;99.90;;;;;;491066;242;27483;-72
2021/04/07 05:15:18;;;;;;;3.70;2.75;;;-0.50;99.90;;;;;;491086;242;27539;-71
2021/04/07 05:17:19;;;;;;;8.25;3.85;;;-0.50;99.90;;;;;;491131;242;27504;-72
2021/04/07 05:19:21;;;;;;;6.93;3.28;;;-0.50;99.90;;;;;;491148;242;27863;-72
2021/04/07 05:21:22;;;;;;;5.62;3.22;;;-0.50;99.90;;;;;;491144;242;27471;-71
2021/04/07 05:23:23;;;;;;;6.30;3.70;;;-0.50;99.90;;;;;;491394;242;27940;-70
2021/04/07 05:25:24;;;;;;;8.85;3.30;;;-0.40;99.90;;;;;;491400;242;28418;-70
2021/04/07 05:27:26;;;;;;;8.73;3.60;;;-0.40;99.90;;;;;;491389;242;27846;-72
2021/04/07 05:29:27;;;;;;;5.15;3.10;;;-0.30;99.90;;;;;;490527;242;27507;-71
2021/04/07 05:31:28;;;;;;;4.72;3.20;;;-0.20;99.90;;;;;;490568;241;27491;-71
2021/04/07 05:33:29;;;;;;;6.68;3.15;;;-0.10;99.90;;;;;;491013;242;27496;-71
2021/04/07 05:35:31;;;;;;;6.15;3.12;;;0.00;99.90;;;;;;491023;242;27608;-71
2021/04/07 05:37:32;;;;;;;4.68;3.42;;;0.00;99.90;;;;;;491078;241;27368;-71
2021/04/07 05:39:33;;;;;;;6.50;3.10;;;0.00;99.90;;;;;;491012;242;27423;-71
2021/04/07 05:41:34;;;;;;;6.12;3.60;;;0.00;99.90;;;;;;491061;242;27487;-71
2021/04/07 05:43:36;;;;;;;8.98;3.45;;;0.10;99.90;;;;;;491065;242;27396;-71
2021/04/07 05:45:37;;;;;;;6.75;3.72;;;0.20;99.90;;;;;;491082;242;27856;-72
2021/04/07 05:47:38;;;;;;;4.40;3.90;;;0.20;99.90;;;;;;491071;240;28713;-70
2021/04/07 05:49:39;;;;;;;4.22;2.90;;;0.10;99.90;;;;;;491050;242;28044;-71
2021/04/07 05:51:41;;;;;;;4.43;3.58;;;0.10;99.90;;;;;;491107;242;29502;-71
2021/04/07 05:53:42;;;;;;;5.80;3.65;;;0.10;99.90;;;;;;491224;242;27914;-71
2021/04/07 05:55:43;;;;;;;9.70;3.60;;;0.10;99.90;;;;;;491237;242;27471;-71
2021/04/07 05:57:44;;;;;;;4.65;3.53;;;0.20;99.90;;;;;;491121;242;27507;-71
2021/04/07 05:59:46;;;;;;;9.60;3.67;;;0.20;99.90;;;;;;491096;241;27487;-70
2021/04/07 06:01:47;;;;;;;6.30;4.07;;;0.20;99.90;;;;;;491055;241;27480;-72
2021/04/07 06:03:48;;;;;;;7.37;4.05;;;0.30;99.90;;;;;;491127;242;27444;-72
2021/04/07 06:05:49;;;;;;;13.50;4.22;;;0.20;99.90;;;;;;491171;242;27500;-71
2021/04/07 06:07:51;;;;;;;4.30;3.17;;;0.30;99.90;;;;;;491297;242;27360;-70
2021/04/07 06:09:52;;;;;;;8.82;3.60;;;0.30;99.90;;;;;;491275;242;27399;-71
2021/04/07 06:11:53;;;;;;;5.82;3.60;;;0.20;99.90;;;;;;491280;242;27475;-71
2021/04/07 06:13:54;;;;;;;3.80;3.50;;;0.20;99.90;;;;;;491192;242;27911;-70
2021/04/07 06:15:56;;;;;;;13.15;4.45;;;0.20;99.90;;;;;;491131;242;27950;-72
2021/04/07 06:17:59;;;;;;;5.05;3.72;;;0.30;99.90;;;;;;491104;242;27922;-71
2021/04/07 06:19:58;;;;;;;8.25;3.97;;;0.30;99.90;;;;;;490960;241;27959;-72
2021/04/07 06:21:59;;;;;;;5.00;3.83;;;0.40;99.90;;;;;;491085;242;27488;-71
2021/04/07 06:24:01;;;;;;;8.35;4.07;;;0.50;99.90;;;;;;491117;242;27444;-71
2021/04/07 06:26:02;;;;;;;11.05;4.20;;;0.50;99.90;;;;;;491090;242;27476;-72
2021/04/07 06:28:03;;;;;;;6.03;3.65;;;0.40;99.90;;;;;;491082;242;27493;-71
2021/04/07 06:30:04;;;;;;;5.12;3.65;;;0.50;99.90;;;;;;491071;242;27460;-72
2021/04/07 06:32:06;;;;;;;5.80;3.87;;;0.40;99.90;;;;;;490681;241;27419;-71
2021/04/07 06:34:07;;;;;;;9.15;4.30;;;0.40;99.90;;;;;;491066;242;27809;-71
2021/04/07 06:36:08;;;;;;;10.98;4.37;;;0.30;99.90;;;;;;491065;242;27567;-71
2021/04/07 06:38:09;;;;;;;8.40;3.83;;;0.30;99.90;;;;;;491031;242;27623;-72
2021/04/07 06:40:11;;;;;;;9.18;4.30;;;0.40;99.90;;;;;;491055;242;28054;-71
2021/04/07 06:42:12;;;;;;;5.57;3.33;;;0.30;99.90;;;;;;491057;242;27970;-72
2021/04/07 06:44:13;;;;;;;6.80;4.10;;;0.40;99.90;;;;;;491041;242;27939;-70
2021/04/07 06:46:14;;;;;;;6.45;4.10;;;0.60;99.90;;;;;;491046;242;27955;-71
2021/04/07 06:48:16;;;;;;;4.30;3.90;;;0.70;99.90;;;;;;491043;242;27638;-71
2021/04/07 06:50:17;;;;;;;8.70;4.05;;;0.90;99.90;;;;;;491066;242;27517;-72
2021/04/07 06:52:18;;;;;;;4.97;3.80;;;1.00;99.90;;;;;;491058;242;27502;-71
2021/04/07 06:54:19;;;;;;;7.15;4.35;;;1.10;99.90;;;;;;491074;242;27556;-70
2021/04/07 06:56:21;;;;;;;9.65;4.97;;;1.20;99.90;;;;;;491098;242;27620;-72
2021/04/07 06:58:22;;;;;;;6.47;3.85;;;1.20;99.90;;;;;;491115;242;27488;-71
2021/04/07 07:00:23;;;;;;;6.55;4.10;;;1.10;99.90;;;;;;491167;242;27484;-71
2021/04/07 07:02:25;;;;;;;8.38;4.45;;;1.00;99.90;;;;;;491262;242;27368;-71
2021/04/07 07:04:26;;;;;;;9.55;4.85;;;1.20;99.90;;;;;;491180;242;27488;-71
2021/04/07 07:06:27;;;;;;;8.80;4.43;;;1.20;99.90;;;;;;491167;242;27460;-71
2021/04/07 07:08:28;;;;;;;9.02;4.47;;;1.00;99.90;;;;;;491188;242;28027;-71
2021/04/07 07:10:29;;;;;;;10.35;4.30;;;0.90;99.90;;;;;;491139;242;27897;-70
2021/04/07 07:12:33;;;;;;;10.65;4.80;;;0.90;99.90;;;;;;491073;241;27986;-71
2021/04/07 07:14:35;;;;;;;7.18;4.85;;;0.90;99.90;;;;;;491066;242;27519;-70
2021/04/07 07:16:36;;;;;;;8.00;4.28;;;1.00;99.90;;;;;;490245;242;28320;-71
2021/04/07 07:18:37;;;;;;;9.18;4.40;;;0.90;99.90;;;;;;490239;242;28056;-71
2021/04/07 07:20:41;;;;;;;9.25;4.20;;;0.80;99.90;;;;;;490276;242;27912;-71
2021/04/07 07:22:42;;;;;;;10.00;4.75;;;0.80;99.90;;;;;;490278;242;28003;-71
2021/04/07 07:24:44;;;;;;;10.55;4.90;;;0.80;99.90;;;;;;490486;242;27824;-71
2021/04/07 07:26:45;;;;;;;5.82;4.43;;;0.80;99.90;;;;;;491036;242;27563;-71
2021/04/07 07:28:50;;;;;;;9.15;4.60;;;1.00;99.90;;;;;;491113;242;27403;-71
2021/04/07 07:30:47;;;;;;;6.72;4.90;;;0.90;99.90;;;;;;490901;241;27445;-71
2021/04/07 07:32:49;;;;;;;8.52;4.85;;;0.90;99.90;;;;;;491062;242;28050;-71
2021/04/07 07:34:50;;;;;;;11.63;5.57;;;1.00;99.90;;;;;;491136;242;28039;-71
2021/04/07 07:36:51;;;;;;;9.57;4.62;;;1.10;99.90;;;;;;491151;242;27978;-71
2021/04/07 07:38:52;;;;;;;8.18;4.70;;;1.00;99.90;;;;;;491221;242;27586;-71
2021/04/07 07:40:54;;;;;;;6.18;4.80;;;1.10;99.90;;;;;;491202;242;27586;-71
2021/04/07 07:42:55;;;;;;;7.85;4.80;;;1.20;99.90;;;;;;491195;242;27578;-71
2021/04/07 07:44:56;;;;;;;6.28;4.20;;;1.30;99.90;;;;;;491245;242;27507;-71
2021/04/07 07:47:02;;;;;;;8.82;4.35;;;1.30;99.90;;;;;;491208;242;27363;-71
2021/04/07 07:49:01;;;;;;;7.18;3.85;;;1.40;99.90;;;;;;490913;241;27587;-71
2021/04/07 07:51:00;;;;;;;7.35;4.70;;;1.60;99.90;;;;;;491020;241;27505;-71
2021/04/07 07:53:01;;;;;;;6.28;4.40;;;1.60;99.90;;;;;;491066;242;27504;-71
2021/04/07 07:55:02;;;;;;;11.25;4.57;;;1.50;99.90;;;;;;491044;242;27491;-71
2021/04/07 07:57:04;;;;;;;13.05;5.43;;;1.60;99.90;;;;;;491046;242;27534;-71
2021/04/07 07:59:05;;;;;;;8.30;4.00;;;1.80;99.90;;;;;;491058;242;28060;-71
2021/04/07 08:01:06;;;;;;;6.12;4.20;;;1.90;99.90;;;;;;491030;242;28154;-70
2021/04/07 08:03:07;;;;;;;10.90;4.45;;;1.90;99.90;;;;;;491018;242;29027;-72
2021/04/07 08:05:09;;;;;;;9.48;4.00;;;2.00;99.90;;;;;;491044;242;27492;-71
2021/04/07 08:07:10;;;;;;;10.75;4.07;;;2.00;99.90;;;;;;491042;242;27443;-71
2021/04/07 08:09:11;;;;;;;10.05;4.12;;;2.00;99.90;;;;;;491029;240;27483;-72
2021/04/07 08:11:12;;;;;;;9.30;4.20;;;1.90;99.90;;;;;;491026;242;27571;-70
2021/04/07 08:13:14;;;;;;;9.82;3.83;;;1.90;99.90;;;;;;491033;242;27488;-71
2021/04/07 08:15:15;;;;;;;10.73;3.92;;;1.90;99.90;;;;;;491027;242;27583;-71
2021/04/07 08:17:16;;;;;;;6.75;3.60;;;1.90;99.90;;;;;;491035;242;27511;-72
2021/04/07 08:19:17;;;;;;;7.20;3.75;;;1.70;99.90;;;;;;491050;242;27599;-71
2021/04/07 08:21:19;;;;;;;7.62;3.60;;;1.60;99.90;;;;;;491046;242;27509;-72
2021/04/07 08:23:20;;;;;;;11.75;4.10;;;1.60;99.90;;;;;;491050;242;27996;-71
2021/04/07 08:25:21;;;;;;;5.32;3.47;;;1.80;99.90;;;;;;491058;242;28041;-71
2021/04/07 08:27:22;;;;;;;9.98;3.85;;;1.80;99.90;;;;;;491046;242;28059;-71
2021/04/07 08:29:24;;;;;;;10.82;4.00;;;2.00;99.90;;;;;;491056;242;27479;-71
2021/04/07 08:31:25;;;;;;;8.77;4.43;;;1.90;99.90;;;;;;491085;242;27461;-71
2021/04/07 08:33:26;;;;;;;7.95;3.42;;;1.80;99.90;;;;;;491103;242;27500;-71
2021/04/07 08:35:27;;;;;;;6.97;3.65;;;1.90;99.90;;;;;;491031;242;27568;-72
2021/04/07 08:37:29;;;;;;;9.07;3.80;;;1.90;99.90;;;;;;491054;242;27502;-71
2021/04/07 08:39:30;;;;;;;8.88;3.80;;;1.90;99.90;;;;;;491054;242;27507;-71
2021/04/07 08:41:31;;;;;;;8.20;4.05;;;1.90;99.90;;;;;;491018;242;27558;-72
2021/04/07 08:43:33;;;;;;;7.20;3.80;;;1.90;99.90;;;;;;491056;241;27480;-70
2021/04/07 08:45:34;;;;;;;7.68;3.87;;;1.80;99.90;;;;;;491053;242;27428;-71
2021/04/07 08:47:46;;;;;;;8.63;4.78;;;1.80;99.90;;;;;;491063;242;27488;-71
2021/04/07 08:49:36;;;;;;;8.40;4.65;;;1.80;99.90;;;;;;490507;241;28678;-71
2021/04/07 08:51:37;;;;;;;5.43;3.60;;;1.90;99.90;;;;;;491026;242;27939;-71
2021/04/07 08:53:39;;;;;;;8.70;4.18;;;1.90;99.90;;;;;;491035;242;28038;-71
2021/04/07 08:55:40;;;;;;;10.27;4.30;;;1.90;99.90;;;;;;491079;242;27444;-71
2021/04/07 08:57:41;;;;;;;5.60;4.30;;;2.10;99.90;;;;;;491043;242;27479;-71
2021/04/07 08:59:42;;;;;;;7.45;5.32;;;2.10;99.90;;;;;;491097;242;27468;-71
2021/04/07 09:01:44;;;;;;;7.45;4.28;;;2.10;99.90;;;;;;491113;242;27484;-71
2021/04/07 09:03:45;;;;;;;11.55;4.50;;;2.00;99.90;;;;;;491168;242;27602;-71
2021/04/07 09:05:46;;;;;;;10.55;4.65;;;2.10;99.90;;;;;;491200;242;27515;-71
2021/04/07 09:07:47;;;;;;;12.07;4.75;;;2.10;99.90;;;;;;490842;242;27821;-70
2021/04/07 09:09:49;;;;;;;8.65;4.57;;;2.30;99.90;;;;;;490602;242;27510;-71
2021/04/07 09:11:50;;;;;;;8.93;4.60;;;2.30;99.90;;;;;;491223;242;27364;-70
2021/04/07 09:13:51;;;;;;;4.93;4.07;;;2.60;99.90;;;;;;491042;242;28097;-71
2021/04/07 09:15:52;;;;;;;7.80;4.40;;;2.90;99.90;;;;;;490874;242;27892;-71
2021/04/07 09:17:54;;;;;;;12.80;4.70;;;3.00;99.90;;;;;;491132;242;28031;-71
2021/04/07 09:19:55;;;;;;;9.68;5.05;;;2.80;99.90;;;;;;491035;242;27502;-71
2021/04/07 09:21:56;;;;;;;11.10;4.55;;;2.80;99.90;;;;;;491014;242;27575;-72
2021/04/07 09:24:03;;;;;;;7.43;4.20;;;2.80;99.90;;;;;;491049;242;27472;-71
2021/04/07 09:26:01;;;;;;;6.57;4.07;;;3.00;99.90;;;;;;490912;241;28668;-71
2021/04/07 09:28:03;;;;;;;7.12;4.25;;;3.10;99.90;;;;;;490937;242;28999;-71
2021/04/07 09:30:04;;;;;;;11.77;4.82;;;3.00;99.90;;;;;;490977;242;28100;-71
2021/04/07 09:32:05;;;;;;;11.18;4.60;;;3.10;99.90;;;;;;491035;242;27476;-71
2021/04/07 09:34:06;;;;;;;10.60;4.45;;;3.20;99.90;;;;;;491016;242;27495;-70
2021/04/07 09:36:08;;;;;;;8.48;4.20;;;3.20;99.90;;;;;;491025;241;27495;-71
2021/04/07 09:38:09;;;;;;;11.38;4.65;;;3.30;99.90;;;;;;490991;242;27491;-71
2021/04/07 09:40:10;;;;;;;11.32;3.90;;;3.30;99.90;;;;;;491059;242;27507;-71
2021/04/07 09:42:11;;;;;;;23.27;4.30;;;3.30;99.90;;;;;;491048;242;27579;-71
2021/04/07 09:44:13;;;;;;;6.70;4.40;;;3.20;99.90;;;;;;491055;242;27408;-71
2021/04/07 09:46:14;;;;;;;13.77;4.70;;;3.20;99.90;;;;;;491061;242;27935;-71
2021/04/07 09:48:15;;;;;;;6.60;3.90;;;3.20;99.90;;;;;;491058;242;28022;-72
2021/04/07 09:50:16;;;;;;;11.98;3.67;;;3.30;99.90;;;;;;491060;242;28068;-71
2021/04/07 09:52:18;;;;;;;10.70;4.47;;;3.30;99.90;;;;;;491063;242;27574;-71
2021/04/07 09:54:19;;;;;;;11.35;3.85;;;3.30;99.90;;;;;;491065;242;27413;-72
2021/04/07 09:56:20;;;;;;;10.73;4.07;;;3.40;99.90;;;;;;491058;242;27606;-71
2021/04/07 09:58:21;;;;;;;10.05;4.35;;;3.50;99.90;;;;;;491066;242;27503;-71
2021/04/07 10:00:23;;;;;;;10.73;3.92;;;3.60;99.90;;;;;;491070;242;27575;-71
2021/04/07 10:02:24;;;;;;;12.57;4.47;;;3.40;99.90;;;;;;491048;242;27953;-71
2021/04/07 10:04:25;;;;;;;16.98;3.90;;;3.40;99.90;;;;;;491098;242;28752;-71
2021/04/07 10:06:26;;;;;;;10.68;3.75;;;3.10;99.90;;;;;;491165;242;27570;-71
2021/04/07 10:08:28;;;;;;;10.05;3.60;;;2.80;99.90;;;;;;491190;242;27491;-70
2021/04/07 10:10:29;;;;;;;13.27;4.35;;;2.70;99.90;;;;;;491177;242;27388;-72
2021/04/07 10:12:32;;;;;;;6.35;4.07;;;2.70;99.90;;;;;;491109;242;27485;-71
2021/04/07 10:14:31;;;;;;;14.63;4.10;;;2.50;99.90;;;;;;490954;240;27809;-71
2021/04/07 10:16:33;;;;;;;9.30;3.67;;;2.50;99.90;;;;;;491145;242;27357;-72
2021/04/07 10:18:34;;;;;;;10.30;3.70;;;2.50;99.90;;;;;;491233;242;27431;-71
2021/04/07 10:20:35;;;;;;;7.78;3.83;;;2.40;99.90;;;;;;491253;242;27891;-70
2021/04/07 10:22:37;;;;;;;7.00;3.80;;;2.40;99.90;;;;;;491102;242;27983;-72
2021/04/07 10:24:38;;;;;;;8.85;3.97;;;2.40;99.90;;;;;;491030;241;28893;-72
2021/04/07 10:26:39;;;;;;;7.15;3.95;;;2.40;99.90;;;;;;491014;242;28010;-71
2021/04/07 10:28:40;;;;;;;14.38;3.90;;;2.40;99.90;;;;;;490991;242;27501;-71
2021/04/07 10:30:42;;;;;;;9.60;4.12;;;2.20;99.90;;;;;;490709;242;27439;-71
2021/04/07 10:32:43;;;;;;;10.35;4.85;;;2.10;99.90;;;;;;491066;242;27488;-71
2021/04/07 10:34:44;;;;;;;25.98;5.93;;;1.80;99.90;;;;;;491087;242;27464;-71